sensor_id;sensor_type;location;lat;lon;timestamp;P1;durP1;ratioP1;P2;durP2;ratioP2
64667;SDS011;51077;42.716;23.344;2023-06-26T00:01:29;18.77;;;13.57;;
64667;SDS011;51077;42.716;23.344;2023-06-26T00:03:56;18.05;;;13.90;;
64667;SDS011;51077;42.716;23.344;2023-06-26T00:06:21;17.27;;;13.60;;
64667;SDS011;51077;42.716;23.344;2023-06-26T00:08:50;19.05;;;14.20;;
64667;SDS011;51077;42.716;23.344;2023-06-26T00:11:19;15.65;;;13.98;;
64667;SDS011;51077;42.716;23.344;2023-06-26T00:13:46;15.75;;;13.38;;
64667;SDS011;51077;42.716;23.344;2023-06-26T00:16:11;18.60;;;13.20;;
64667;SDS011;51077;42.716;23.344;2023-06-26T00:18:36;15.57;;;12.63;;
64667;SDS011;51077;42.716;23.344;2023-06-26T00:21:02;16.20;;;13.47;;
64667;SDS011;51077;42.716;23.344;2023-06-26T00:23:27;14.10;;;12.00;;
64667;SDS011;51077;42.716;23.344;2023-06-26T00:25:53;18.10;;;12.90;;
64667;SDS011;51077;42.716;23.344;2023-06-26T00:28:18;14.47;;;11.80;;
64667;SDS011;51077;42.716;23.344;2023-06-26T00:30:44;14.47;;;11.27;;
64667;SDS011;51077;42.716;23.344;2023-06-26T00:33:09;14.13;;;11.60;;
64667;SDS011;51077;42.716;23.344;2023-06-26T00:35:34;14.00;;;11.30;;
64667;SDS011;51077;42.716;23.344;2023-06-26T00:38:00;14.47;;;11.33;;
64667;SDS011;51077;42.716;23.344;2023-06-26T00:40:26;17.05;;;11.80;;
64667;SDS011;51077;42.716;23.344;2023-06-26T00:42:52;20.15;;;11.45;;
64667;SDS011;51077;42.716;23.344;2023-06-26T00:45:18;15.30;;;11.33;;
64667;SDS011;51077;42.716;23.344;2023-06-26T00:47:43;12.33;;;11.03;;
64667;SDS011;51077;42.716;23.344;2023-06-26T00:50:09;12.57;;;10.40;;
64667;SDS011;51077;42.716;23.344;2023-06-26T00:52:35;12.73;;;10.20;;
64667;SDS011;51077;42.716;23.344;2023-06-26T00:55:00;13.13;;;10.73;;
64667;SDS011;51077;42.716;23.344;2023-06-26T00:57:26;15.05;;;10.55;;
64667;SDS011;51077;42.716;23.344;2023-06-26T00:59:52;12.83;;;10.47;;
64667;SDS011;51077;42.716;23.344;2023-06-26T01:02:17;11.77;;;9.67;;
64667;SDS011;51077;42.716;23.344;2023-06-26T01:04:45;14.25;;;9.68;;
64667;SDS011;51077;42.716;23.344;2023-06-26T01:07:12;12.23;;;9.68;;
64667;SDS011;51077;42.716;23.344;2023-06-26T01:09:39;11.80;;;8.98;;
64667;SDS011;51077;42.716;23.344;2023-06-26T01:12:04;12.33;;;9.60;;
64667;SDS011;51077;42.716;23.344;2023-06-26T01:14:30;11.33;;;9.57;;
64667;SDS011;51077;42.716;23.344;2023-06-26T01:16:57;11.07;;;9.73;;
64667;SDS011;51077;42.716;23.344;2023-06-26T01:19:24;11.98;;;8.90;;
64667;SDS011;51077;42.716;23.344;2023-06-26T01:21:56;12.32;;;9.32;;
64667;SDS011;51077;42.716;23.344;2023-06-26T01:24:25;10.32;;;8.95;;
64667;SDS011;51077;42.716;23.344;2023-06-26T01:26:58;10.75;;;8.65;;
64667;SDS011;51077;42.716;23.344;2023-06-26T01:29:26;11.95;;;9.40;;
64667;SDS011;51077;42.716;23.344;2023-06-26T01:31:55;12.43;;;8.80;;
64667;SDS011;51077;42.716;23.344;2023-06-26T01:34:20;9.60;;;8.17;;
64667;SDS011;51077;42.716;23.344;2023-06-26T01:36:46;11.37;;;8.60;;
64667;SDS011;51077;42.716;23.344;2023-06-26T01:39:14;10.43;;;8.20;;
64667;SDS011;51077;42.716;23.344;2023-06-26T01:41:41;10.25;;;8.25;;
64667;SDS011;51077;42.716;23.344;2023-06-26T01:49:49;11.25;;;8.27;;
64667;SDS011;51077;42.716;23.344;2023-06-26T01:57:48;11.07;;;7.63;;
64667;SDS011;51077;42.716;23.344;2023-06-26T02:00:19;10.45;;;7.93;;
64667;SDS011;51077;42.716;23.344;2023-06-26T02:02:46;10.68;;;7.63;;
64667;SDS011;51077;42.716;23.344;2023-06-26T02:05:12;9.20;;;8.17;;
64667;SDS011;51077;42.716;23.344;2023-06-26T02:07:38;10.80;;;8.27;;
64667;SDS011;51077;42.716;23.344;2023-06-26T02:10:03;9.87;;;8.57;;
64667;SDS011;51077;42.716;23.344;2023-06-26T02:12:29;10.13;;;8.10;;
64667;SDS011;51077;42.716;23.344;2023-06-26T02:14:54;13.63;;;8.03;;
64667;SDS011;51077;42.716;23.344;2023-06-26T02:17:20;13.97;;;8.27;;
64667;SDS011;51077;42.716;23.344;2023-06-26T02:19:45;11.37;;;8.17;;
64667;SDS011;51077;42.716;23.344;2023-06-26T02:22:15;10.40;;;8.20;;
64667;SDS011;51077;42.716;23.344;2023-06-26T02:24:41;10.85;;;8.30;;
64667;SDS011;51077;42.716;23.344;2023-06-26T02:27:07;10.73;;;8.70;;
64667;SDS011;51077;42.716;23.344;2023-06-26T02:29:33;10.47;;;8.77;;
64667;SDS011;51077;42.716;23.344;2023-06-26T02:31:58;14.57;;;8.30;;
64667;SDS011;51077;42.716;23.344;2023-06-26T02:34:23;10.23;;;8.60;;
64667;SDS011;51077;42.716;23.344;2023-06-26T02:36:49;10.90;;;9.20;;
64667;SDS011;51077;42.716;23.344;2023-06-26T02:39:14;11.87;;;8.70;;
64667;SDS011;51077;42.716;23.344;2023-06-26T02:41:40;11.97;;;9.17;;
64667;SDS011;51077;42.716;23.344;2023-06-26T02:44:05;10.30;;;8.30;;
64667;SDS011;51077;42.716;23.344;2023-06-26T02:46:31;10.50;;;8.82;;
64667;SDS011;51077;42.716;23.344;2023-06-26T02:48:58;10.50;;;8.55;;
64667;SDS011;51077;42.716;23.344;2023-06-26T02:51:24;10.77;;;9.40;;
64667;SDS011;51077;42.716;23.344;2023-06-26T02:53:49;10.53;;;8.97;;
64667;SDS011;51077;42.716;23.344;2023-06-26T02:56:14;11.87;;;9.60;;
64667;SDS011;51077;42.716;23.344;2023-06-26T02:58:40;13.47;;;9.40;;
64667;SDS011;51077;42.716;23.344;2023-06-26T03:01:05;12.13;;;10.27;;
64667;SDS011;51077;42.716;23.344;2023-06-26T03:03:30;12.40;;;9.83;;
64667;SDS011;51077;42.716;23.344;2023-06-26T03:06:05;12.02;;;10.27;;
64667;SDS011;51077;42.716;23.344;2023-06-26T03:08:30;12.50;;;10.30;;
64667;SDS011;51077;42.716;23.344;2023-06-26T03:10:57;13.35;;;11.23;;
64667;SDS011;51077;42.716;23.344;2023-06-26T03:13:22;13.77;;;10.70;;
64667;SDS011;51077;42.716;23.344;2023-06-26T03:15:47;13.70;;;10.10;;
64667;SDS011;51077;42.716;23.344;2023-06-26T03:18:13;11.30;;;9.93;;
64667;SDS011;51077;42.716;23.344;2023-06-26T03:20:39;12.23;;;9.23;;
64667;SDS011;51077;42.716;23.344;2023-06-26T03:23:04;11.80;;;9.63;;
64667;SDS011;51077;42.716;23.344;2023-06-26T03:25:29;13.07;;;9.27;;
64667;SDS011;51077;42.716;23.344;2023-06-26T03:27:55;11.03;;;9.83;;
64667;SDS011;51077;42.716;23.344;2023-06-26T03:30:20;12.80;;;9.70;;
64667;SDS011;51077;42.716;23.344;2023-06-26T03:32:46;12.33;;;9.83;;
64667;SDS011;51077;42.716;23.344;2023-06-26T03:35:11;14.77;;;10.33;;
64667;SDS011;51077;42.716;23.344;2023-06-26T03:37:37;12.47;;;10.67;;
64667;SDS011;51077;42.716;23.344;2023-06-26T03:40:02;14.43;;;10.50;;
64667;SDS011;51077;42.716;23.344;2023-06-26T03:42:29;13.55;;;11.75;;
64667;SDS011;51077;42.716;23.344;2023-06-26T03:44:55;13.57;;;11.80;;
64667;SDS011;51077;42.716;23.344;2023-06-26T03:47:20;12.93;;;11.53;;
64667;SDS011;51077;42.716;23.344;2023-06-26T03:49:45;14.83;;;11.87;;
64667;SDS011;51077;42.716;23.344;2023-06-26T03:52:11;13.20;;;11.90;;
64667;SDS011;51077;42.716;23.344;2023-06-26T03:54:36;14.60;;;13.07;;
64667;SDS011;51077;42.716;23.344;2023-06-26T03:57:02;14.10;;;12.07;;
64667;SDS011;51077;42.716;23.344;2023-06-26T03:59:27;14.77;;;13.27;;
64667;SDS011;51077;42.716;23.344;2023-06-26T04:01:53;14.70;;;12.20;;
64667;SDS011;51077;42.716;23.344;2023-06-26T04:04:18;15.33;;;13.67;;
64667;SDS011;51077;42.716;23.344;2023-06-26T04:06:44;13.67;;;12.27;;
64667;SDS011;51077;42.716;23.344;2023-06-26T04:09:09;13.80;;;12.17;;
64667;SDS011;51077;42.716;23.344;2023-06-26T04:11:34;15.47;;;12.27;;
64667;SDS011;51077;42.716;23.344;2023-06-26T04:14:00;14.87;;;12.60;;
64667;SDS011;51077;42.716;23.344;2023-06-26T04:16:25;16.57;;;12.33;;
64667;SDS011;51077;42.716;23.344;2023-06-26T04:18:51;14.23;;;12.70;;
64667;SDS011;51077;42.716;23.344;2023-06-26T04:21:17;16.38;;;12.95;;
64667;SDS011;51077;42.716;23.344;2023-06-26T04:23:43;15.60;;;12.77;;
64667;SDS011;51077;42.716;23.344;2023-06-26T04:26:08;14.67;;;12.87;;
64667;SDS011;51077;42.716;23.344;2023-06-26T04:28:34;14.90;;;13.47;;
64667;SDS011;51077;42.716;23.344;2023-06-26T04:31:00;13.98;;;12.57;;
64667;SDS011;51077;42.716;23.344;2023-06-26T04:33:27;15.88;;;12.32;;
64667;SDS011;51077;42.716;23.344;2023-06-26T04:35:53;16.95;;;13.15;;
64667;SDS011;51077;42.716;23.344;2023-06-26T04:38:18;13.67;;;12.10;;
64667;SDS011;51077;42.716;23.344;2023-06-26T04:40:44;16.40;;;13.40;;
64667;SDS011;51077;42.716;23.344;2023-06-26T04:43:10;13.13;;;11.73;;
64667;SDS011;51077;42.716;23.344;2023-06-26T04:45:35;15.27;;;12.20;;
64667;SDS011;51077;42.716;23.344;2023-06-26T04:48:01;13.93;;;12.40;;
64667;SDS011;51077;42.716;23.344;2023-06-26T04:50:27;14.13;;;12.55;;
64667;SDS011;51077;42.716;23.344;2023-06-26T04:52:54;14.18;;;12.23;;
64667;SDS011;51077;42.716;23.344;2023-06-26T04:55:20;14.75;;;13.25;;
64667;SDS011;51077;42.716;23.344;2023-06-26T04:57:46;14.70;;;12.93;;
64667;SDS011;51077;42.716;23.344;2023-06-26T05:00:12;16.07;;;12.07;;
64667;SDS011;51077;42.716;23.344;2023-06-26T05:02:38;13.65;;;12.23;;
64667;SDS011;51077;42.716;23.344;2023-06-26T05:05:04;14.50;;;12.73;;
64667;SDS011;51077;42.716;23.344;2023-06-26T05:07:29;13.27;;;11.97;;
64667;SDS011;51077;42.716;23.344;2023-06-26T05:09:55;15.33;;;11.97;;
64667;SDS011;51077;42.716;23.344;2023-06-26T05:12:20;16.37;;;13.10;;
64667;SDS011;51077;42.716;23.344;2023-06-26T05:14:46;14.97;;;12.20;;
64667;SDS011;51077;42.716;23.344;2023-06-26T05:17:13;14.90;;;11.60;;
64667;SDS011;51077;42.716;23.344;2023-06-26T05:19:38;13.35;;;11.45;;
64667;SDS011;51077;42.716;23.344;2023-06-26T05:22:04;15.07;;;12.63;;
64667;SDS011;51077;42.716;23.344;2023-06-26T05:24:32;13.70;;;12.23;;
64667;SDS011;51077;42.716;23.344;2023-06-26T05:27:00;16.50;;;12.77;;
64667;SDS011;51077;42.716;23.344;2023-06-26T05:29:26;14.67;;;11.40;;
64667;SDS011;51077;42.716;23.344;2023-06-26T05:31:52;13.30;;;11.27;;
64667;SDS011;51077;42.716;23.344;2023-06-26T05:34:21;14.45;;;11.40;;
64667;SDS011;51077;42.716;23.344;2023-06-26T05:36:48;13.90;;;11.70;;
64667;SDS011;51077;42.716;23.344;2023-06-26T05:39:16;14.63;;;11.57;;
64667;SDS011;51077;42.716;23.344;2023-06-26T05:41:43;13.13;;;11.30;;
64667;SDS011;51077;42.716;23.344;2023-06-26T05:44:10;14.05;;;11.05;;
64667;SDS011;51077;42.716;23.344;2023-06-26T05:46:35;11.73;;;10.63;;
64667;SDS011;51077;42.716;23.344;2023-06-26T05:49:01;12.27;;;10.90;;
64667;SDS011;51077;42.716;23.344;2023-06-26T05:51:27;14.27;;;10.87;;
64667;SDS011;51077;42.716;23.344;2023-06-26T05:53:53;12.20;;;10.68;;
64667;SDS011;51077;42.716;23.344;2023-06-26T05:56:19;15.53;;;10.77;;
64667;SDS011;51077;42.716;23.344;2023-06-26T05:58:45;12.67;;;11.37;;
64667;SDS011;51077;42.716;23.344;2023-06-26T06:01:10;12.25;;;10.95;;
64667;SDS011;51077;42.716;23.344;2023-06-26T06:03:36;13.10;;;10.27;;
64667;SDS011;51077;42.716;23.344;2023-06-26T06:06:02;11.88;;;10.38;;
64667;SDS011;51077;42.716;23.344;2023-06-26T06:08:28;12.00;;;10.77;;
64667;SDS011;51077;42.716;23.344;2023-06-26T06:10:53;11.47;;;10.20;;
64667;SDS011;51077;42.716;23.344;2023-06-26T06:13:19;11.20;;;9.90;;
64667;SDS011;51077;42.716;23.344;2023-06-26T06:15:44;13.80;;;10.90;;
64667;SDS011;51077;42.716;23.344;2023-06-26T06:18:09;11.03;;;10.00;;
64667;SDS011;51077;42.716;23.344;2023-06-26T06:20:35;11.53;;;10.27;;
64667;SDS011;51077;42.716;23.344;2023-06-26T06:23:00;11.30;;;10.20;;
64667;SDS011;51077;42.716;23.344;2023-06-26T06:25:26;11.57;;;10.13;;
64667;SDS011;51077;42.716;23.344;2023-06-26T06:27:51;12.70;;;10.10;;
64667;SDS011;51077;42.716;23.344;2023-06-26T06:30:17;11.67;;;10.47;;
64667;SDS011;51077;42.716;23.344;2023-06-26T06:32:42;13.20;;;9.60;;
64667;SDS011;51077;42.716;23.344;2023-06-26T06:35:08;11.13;;;9.90;;
64667;SDS011;51077;42.716;23.344;2023-06-26T06:37:35;12.10;;;10.05;;
64667;SDS011;51077;42.716;23.344;2023-06-26T06:40:08;10.85;;;9.75;;
64667;SDS011;51077;42.716;23.344;2023-06-26T06:42:34;11.40;;;9.70;;
64667;SDS011;51077;42.716;23.344;2023-06-26T06:45:03;11.23;;;9.02;;
64667;SDS011;51077;42.716;23.344;2023-06-26T06:47:30;11.23;;;8.80;;
64667;SDS011;51077;42.716;23.344;2023-06-26T06:49:56;10.73;;;9.38;;
64667;SDS011;51077;42.716;23.344;2023-06-26T06:52:21;10.53;;;9.17;;
64667;SDS011;51077;42.716;23.344;2023-06-26T06:54:53;10.73;;;9.33;;
64667;SDS011;51077;42.716;23.344;2023-06-26T06:57:20;9.13;;;7.97;;
64667;SDS011;51077;42.716;23.344;2023-06-26T06:59:46;9.50;;;8.45;;
64667;SDS011;51077;42.716;23.344;2023-06-26T07:02:12;11.93;;;7.80;;
64667;SDS011;51077;42.716;23.344;2023-06-26T07:04:38;8.85;;;7.57;;
64667;SDS011;51077;42.716;23.344;2023-06-26T07:07:03;8.13;;;7.30;;
64667;SDS011;51077;42.716;23.344;2023-06-26T07:09:30;7.93;;;7.13;;
64667;SDS011;51077;42.716;23.344;2023-06-26T07:11:56;9.20;;;7.43;;
64667;SDS011;51077;42.716;23.344;2023-06-26T07:14:21;10.03;;;7.40;;
64667;SDS011;51077;42.716;23.344;2023-06-26T07:16:46;10.17;;;7.57;;
64667;SDS011;51077;42.716;23.344;2023-06-26T07:19:12;9.77;;;7.70;;
64667;SDS011;51077;42.716;23.344;2023-06-26T07:21:37;9.30;;;7.40;;
64667;SDS011;51077;42.716;23.344;2023-06-26T07:24:02;12.27;;;7.47;;
64667;SDS011;51077;42.716;23.344;2023-06-26T07:26:28;10.27;;;7.10;;
64667;SDS011;51077;42.716;23.344;2023-06-26T07:28:53;9.93;;;7.50;;
64667;SDS011;51077;42.716;23.344;2023-06-26T07:31:21;8.75;;;7.22;;
64667;SDS011;51077;42.716;23.344;2023-06-26T07:33:47;8.63;;;6.90;;
64667;SDS011;51077;42.716;23.344;2023-06-26T07:36:12;7.13;;;6.43;;
64667;SDS011;51077;42.716;23.344;2023-06-26T07:38:37;6.93;;;6.23;;
64667;SDS011;51077;42.716;23.344;2023-06-26T07:41:03;7.43;;;6.73;;
64667;SDS011;51077;42.716;23.344;2023-06-26T07:43:28;8.17;;;6.30;;
64667;SDS011;51077;42.716;23.344;2023-06-26T07:45:53;8.90;;;6.70;;
64667;SDS011;51077;42.716;23.344;2023-06-26T07:48:19;10.57;;;7.13;;
64667;SDS011;51077;42.716;23.344;2023-06-26T07:50:44;7.07;;;6.37;;
64667;SDS011;51077;42.716;23.344;2023-06-26T07:53:09;8.20;;;6.10;;
64667;SDS011;51077;42.716;23.344;2023-06-26T07:55:35;8.87;;;6.37;;
64667;SDS011;51077;42.716;23.344;2023-06-26T07:58:00;8.87;;;5.77;;
64667;SDS011;51077;42.716;23.344;2023-06-26T08:00:26;7.07;;;5.53;;
64667;SDS011;51077;42.716;23.344;2023-06-26T08:02:52;9.37;;;5.90;;
64667;SDS011;51077;42.716;23.344;2023-06-26T08:05:18;8.43;;;6.35;;
64667;SDS011;51077;42.716;23.344;2023-06-26T08:07:43;6.60;;;4.97;;
64667;SDS011;51077;42.716;23.344;2023-06-26T08:10:09;8.50;;;5.40;;
64667;SDS011;51077;42.716;23.344;2023-06-26T08:12:34;6.90;;;5.30;;
64667;SDS011;51077;42.716;23.344;2023-06-26T08:15:01;6.30;;;5.22;;
64667;SDS011;51077;42.716;23.344;2023-06-26T08:17:28;6.75;;;5.18;;
64667;SDS011;51077;42.716;23.344;2023-06-26T08:19:53;6.53;;;4.73;;
64667;SDS011;51077;42.716;23.344;2023-06-26T08:22:18;7.97;;;5.43;;
64667;SDS011;51077;42.716;23.344;2023-06-26T08:24:44;5.90;;;4.83;;
64667;SDS011;51077;42.716;23.344;2023-06-26T08:27:09;5.63;;;4.63;;
64667;SDS011;51077;42.716;23.344;2023-06-26T08:29:35;7.17;;;5.10;;
64667;SDS011;51077;42.716;23.344;2023-06-26T08:32:00;6.43;;;5.37;;
64667;SDS011;51077;42.716;23.344;2023-06-26T08:34:27;6.05;;;5.13;;
64667;SDS011;51077;42.716;23.344;2023-06-26T08:36:52;5.80;;;4.90;;
64667;SDS011;51077;42.716;23.344;2023-06-26T08:39:18;6.03;;;4.63;;
64667;SDS011;51077;42.716;23.344;2023-06-26T08:41:43;6.27;;;5.00;;
64667;SDS011;51077;42.716;23.344;2023-06-26T08:44:09;6.27;;;4.50;;
64667;SDS011;51077;42.716;23.344;2023-06-26T08:46:35;6.72;;;4.40;;
64667;SDS011;51077;42.716;23.344;2023-06-26T08:49:02;7.60;;;4.67;;
64667;SDS011;51077;42.716;23.344;2023-06-26T08:51:35;7.38;;;4.70;;
64667;SDS011;51077;42.716;23.344;2023-06-26T08:54:05;6.78;;;4.70;;
64667;SDS011;51077;42.716;23.344;2023-06-26T08:56:37;5.80;;;4.18;;
64667;SDS011;51077;42.716;23.344;2023-06-26T08:59:07;5.63;;;4.57;;
64667;SDS011;51077;42.716;23.344;2023-06-26T09:01:35;6.22;;;4.30;;
64667;SDS011;51077;42.716;23.344;2023-06-26T09:04:02;7.65;;;4.18;;
64667;SDS011;51077;42.716;23.344;2023-06-26T09:06:28;5.17;;;4.53;;
64667;SDS011;51077;42.716;23.344;2023-06-26T09:08:53;8.97;;;4.60;;
64667;SDS011;51077;42.716;23.344;2023-06-26T09:11:19;6.10;;;4.37;;
64667;SDS011;51077;42.716;23.344;2023-06-26T09:13:44;5.67;;;4.70;;
64667;SDS011;51077;42.716;23.344;2023-06-26T09:16:12;5.57;;;4.10;;
64667;SDS011;51077;42.716;23.344;2023-06-26T09:18:38;7.47;;;4.40;;
64667;SDS011;51077;42.716;23.344;2023-06-26T09:21:09;5.93;;;4.23;;
64667;SDS011;51077;42.716;23.344;2023-06-26T09:23:35;5.43;;;3.80;;
64667;SDS011;51077;42.716;23.344;2023-06-26T09:26:04;5.17;;;3.73;;
64667;SDS011;51077;42.716;23.344;2023-06-26T09:28:30;5.17;;;3.90;;
64667;SDS011;51077;42.716;23.344;2023-06-26T09:31:04;5.60;;;4.00;;
64667;SDS011;51077;42.716;23.344;2023-06-26T09:33:34;4.80;;;3.90;;
64667;SDS011;51077;42.716;23.344;2023-06-26T09:36:04;6.47;;;4.33;;
64667;SDS011;51077;42.716;23.344;2023-06-26T09:38:31;5.27;;;3.90;;
64667;SDS011;51077;42.716;23.344;2023-06-26T09:40:56;5.73;;;4.10;;
64667;SDS011;51077;42.716;23.344;2023-06-26T09:43:22;6.30;;;3.80;;
64667;SDS011;51077;42.716;23.344;2023-06-26T09:45:48;5.23;;;3.87;;
64667;SDS011;51077;42.716;23.344;2023-06-26T09:48:13;5.83;;;3.53;;
64667;SDS011;51077;42.716;23.344;2023-06-26T09:50:41;4.50;;;3.63;;
64667;SDS011;51077;42.716;23.344;2023-06-26T09:53:11;6.33;;;3.60;;
64667;SDS011;51077;42.716;23.344;2023-06-26T09:55:40;4.72;;;3.88;;
64667;SDS011;51077;42.716;23.344;2023-06-26T09:58:09;5.20;;;4.03;;
64667;SDS011;51077;42.716;23.344;2023-06-26T10:00:39;8.13;;;3.97;;
64667;SDS011;51077;42.716;23.344;2023-06-26T10:03:05;5.20;;;3.70;;
64667;SDS011;51077;42.716;23.344;2023-06-26T10:05:30;6.13;;;4.03;;
64667;SDS011;51077;42.716;23.344;2023-06-26T10:07:56;4.70;;;3.77;;
64667;SDS011;51077;42.716;23.344;2023-06-26T10:10:23;6.13;;;4.05;;
64667;SDS011;51077;42.716;23.344;2023-06-26T10:12:51;7.22;;;4.05;;
64667;SDS011;51077;42.716;23.344;2023-06-26T10:15:24;7.10;;;3.72;;
64667;SDS011;51077;42.716;23.344;2023-06-26T10:17:51;5.90;;;3.72;;
64667;SDS011;51077;42.716;23.344;2023-06-26T10:20:20;4.90;;;4.28;;
64667;SDS011;51077;42.716;23.344;2023-06-26T10:22:46;5.80;;;3.83;;
64667;SDS011;51077;42.716;23.344;2023-06-26T10:25:14;5.43;;;3.72;;
64667;SDS011;51077;42.716;23.344;2023-06-26T10:27:44;5.70;;;3.92;;
64667;SDS011;51077;42.716;23.344;2023-06-26T10:30:16;7.57;;;4.55;;
64667;SDS011;51077;42.716;23.344;2023-06-26T10:32:45;5.80;;;4.07;;
64667;SDS011;51077;42.716;23.344;2023-06-26T10:35:12;6.97;;;4.45;;
64667;SDS011;51077;42.716;23.344;2023-06-26T10:38:22;5.80;;;3.90;;
64667;SDS011;51077;42.716;23.344;2023-06-26T10:43:08;7.63;;;4.72;;
64667;SDS011;51077;42.716;23.344;2023-06-26T10:45:34;6.32;;;4.20;;
64667;SDS011;51077;42.716;23.344;2023-06-26T10:48:01;7.38;;;4.78;;
64667;SDS011;51077;42.716;23.344;2023-06-26T10:50:29;6.28;;;4.22;;
64667;SDS011;51077;42.716;23.344;2023-06-26T10:55:48;5.57;;;4.55;;
64667;SDS011;51077;42.716;23.344;2023-06-26T11:06:29;5.00;;;4.30;;
64667;SDS011;51077;42.716;23.344;2023-06-26T11:09:00;5.55;;;4.05;;
64667;SDS011;51077;42.716;23.344;2023-06-26T11:14:25;4.78;;;3.80;;
64667;SDS011;51077;42.716;23.344;2023-06-26T11:16:52;8.18;;;4.35;;
64667;SDS011;51077;42.716;23.344;2023-06-26T11:19:18;6.27;;;4.70;;
64667;SDS011;51077;42.716;23.344;2023-06-26T11:21:44;7.00;;;4.70;;
64667;SDS011;51077;42.716;23.344;2023-06-26T11:24:10;6.03;;;4.20;;
64667;SDS011;51077;42.716;23.344;2023-06-26T11:26:40;7.63;;;4.63;;
64667;SDS011;51077;42.716;23.344;2023-06-26T11:29:06;4.87;;;4.10;;
64667;SDS011;51077;42.716;23.344;2023-06-26T11:31:36;6.47;;;4.43;;
64667;SDS011;51077;42.716;23.344;2023-06-26T11:34:04;5.20;;;4.57;;
64667;SDS011;51077;42.716;23.344;2023-06-26T11:36:34;6.60;;;4.43;;
64667;SDS011;51077;42.716;23.344;2023-06-26T11:39:04;5.80;;;4.43;;
64667;SDS011;51077;42.716;23.344;2023-06-26T11:41:37;5.87;;;4.27;;
64667;SDS011;51077;42.716;23.344;2023-06-26T11:44:05;5.50;;;4.67;;
64667;SDS011;51077;42.716;23.344;2023-06-26T11:46:32;5.87;;;4.30;;
64667;SDS011;51077;42.716;23.344;2023-06-26T11:48:59;6.00;;;4.30;;
64667;SDS011;51077;42.716;23.344;2023-06-26T11:51:28;5.73;;;4.13;;
64667;SDS011;51077;42.716;23.344;2023-06-26T11:53:54;5.77;;;4.50;;
64667;SDS011;51077;42.716;23.344;2023-06-26T11:56:19;5.50;;;4.07;;
64667;SDS011;51077;42.716;23.344;2023-06-26T12:01:26;6.83;;;4.40;;
64667;SDS011;51077;42.716;23.344;2023-06-26T12:03:58;6.80;;;4.43;;
64667;SDS011;51077;42.716;23.344;2023-06-26T12:06:26;8.03;;;4.37;;
64667;SDS011;51077;42.716;23.344;2023-06-26T12:08:52;7.23;;;4.47;;
64667;SDS011;51077;42.716;23.344;2023-06-26T12:11:17;5.23;;;4.00;;
64667;SDS011;51077;42.716;23.344;2023-06-26T12:13:45;5.17;;;4.40;;
64667;SDS011;51077;42.716;23.344;2023-06-26T12:16:11;6.87;;;4.33;;
64667;SDS011;51077;42.716;23.344;2023-06-26T12:18:37;5.10;;;3.90;;
64667;SDS011;51077;42.716;23.344;2023-06-26T12:21:03;7.40;;;3.77;;
64667;SDS011;51077;42.716;23.344;2023-06-26T12:23:32;6.23;;;4.10;;
64667;SDS011;51077;42.716;23.344;2023-06-26T12:26:15;5.57;;;4.20;;
64667;SDS011;51077;42.716;23.344;2023-06-26T12:28:44;5.00;;;4.23;;
64667;SDS011;51077;42.716;23.344;2023-06-26T12:31:16;6.30;;;4.43;;
64667;SDS011;51077;42.716;23.344;2023-06-26T12:33:42;5.23;;;4.03;;
64667;SDS011;51077;42.716;23.344;2023-06-26T12:36:12;6.07;;;4.60;;
64667;SDS011;51077;42.716;23.344;2023-06-26T12:38:38;5.50;;;4.57;;
64667;SDS011;51077;42.716;23.344;2023-06-26T12:41:05;8.60;;;4.10;;
64667;SDS011;51077;42.716;23.344;2023-06-26T12:43:38;5.57;;;4.57;;
64667;SDS011;51077;42.716;23.344;2023-06-26T12:46:04;6.97;;;4.87;;
64667;SDS011;51077;42.716;23.344;2023-06-26T12:48:39;6.47;;;4.67;;
64667;SDS011;51077;42.716;23.344;2023-06-26T12:51:11;5.00;;;4.50;;
64667;SDS011;51077;42.716;23.344;2023-06-26T12:53:41;6.40;;;4.47;;
64667;SDS011;51077;42.716;23.344;2023-06-26T12:56:07;6.00;;;4.70;;
64667;SDS011;51077;42.716;23.344;2023-06-26T12:58:33;6.10;;;4.77;;
64667;SDS011;51077;42.716;23.344;2023-06-26T13:01:01;7.87;;;4.90;;
64667;SDS011;51077;42.716;23.344;2023-06-26T13:03:28;6.00;;;4.87;;
64667;SDS011;51077;42.716;23.344;2023-06-26T13:05:53;8.43;;;4.80;;
64667;SDS011;51077;42.716;23.344;2023-06-26T13:08:18;6.10;;;4.53;;
64667;SDS011;51077;42.716;23.344;2023-06-26T13:10:44;5.60;;;4.63;;
64667;SDS011;51077;42.716;23.344;2023-06-26T13:13:10;5.73;;;4.40;;
64667;SDS011;51077;42.716;23.344;2023-06-26T13:15:36;7.23;;;4.30;;
64667;SDS011;51077;42.716;23.344;2023-06-26T13:18:02;5.73;;;4.17;;
64667;SDS011;51077;42.716;23.344;2023-06-26T13:20:27;7.60;;;4.90;;
64667;SDS011;51077;42.716;23.344;2023-06-26T13:22:53;6.37;;;4.27;;
64667;SDS011;51077;42.716;23.344;2023-06-26T13:25:19;6.13;;;4.60;;
64667;SDS011;51077;42.716;23.344;2023-06-26T13:27:45;5.10;;;4.03;;
64667;SDS011;51077;42.716;23.344;2023-06-26T13:30:11;6.57;;;4.40;;
64667;SDS011;51077;42.716;23.344;2023-06-26T13:32:37;6.67;;;4.57;;
64667;SDS011;51077;42.716;23.344;2023-06-26T13:35:02;6.93;;;4.00;;
64667;SDS011;51077;42.716;23.344;2023-06-26T13:37:29;8.37;;;4.27;;
64667;SDS011;51077;42.716;23.344;2023-06-26T13:39:54;5.57;;;4.40;;
64667;SDS011;51077;42.716;23.344;2023-06-26T13:42:20;5.67;;;4.07;;
64667;SDS011;51077;42.716;23.344;2023-06-26T13:44:45;5.60;;;4.00;;
64667;SDS011;51077;42.716;23.344;2023-06-26T13:47:12;5.87;;;4.47;;
64667;SDS011;51077;42.716;23.344;2023-06-26T13:49:38;7.90;;;4.60;;
64667;SDS011;51077;42.716;23.344;2023-06-26T13:52:03;6.53;;;4.00;;
64667;SDS011;51077;42.716;23.344;2023-06-26T13:54:29;6.13;;;4.27;;
64667;SDS011;51077;42.716;23.344;2023-06-26T13:56:54;7.53;;;4.00;;
64667;SDS011;51077;42.716;23.344;2023-06-26T13:59:22;5.15;;;4.32;;
64667;SDS011;51077;42.716;23.344;2023-06-26T14:01:50;8.20;;;4.25;;
64667;SDS011;51077;42.716;23.344;2023-06-26T14:04:15;6.20;;;3.97;;
64667;SDS011;51077;42.716;23.344;2023-06-26T14:06:41;6.33;;;4.10;;
64667;SDS011;51077;42.716;23.344;2023-06-26T14:09:07;6.00;;;4.60;;
64667;SDS011;51077;42.716;23.344;2023-06-26T14:11:33;6.35;;;4.18;;
64667;SDS011;51077;42.716;23.344;2023-06-26T14:14:00;8.02;;;3.97;;
64667;SDS011;51077;42.716;23.344;2023-06-26T14:16:26;6.13;;;4.50;;
64667;SDS011;51077;42.716;23.344;2023-06-26T14:18:51;5.57;;;4.50;;
64667;SDS011;51077;42.716;23.344;2023-06-26T14:21:16;6.77;;;4.87;;
64667;SDS011;51077;42.716;23.344;2023-06-26T14:23:42;6.73;;;4.73;;
64667;SDS011;51077;42.716;23.344;2023-06-26T14:26:07;6.70;;;4.67;;
64667;SDS011;51077;42.716;23.344;2023-06-26T14:28:33;7.30;;;4.93;;
64667;SDS011;51077;42.716;23.344;2023-06-26T14:30:58;6.57;;;4.90;;
64667;SDS011;51077;42.716;23.344;2023-06-26T14:33:24;7.57;;;4.93;;
64667;SDS011;51077;42.716;23.344;2023-06-26T14:35:49;7.83;;;4.70;;
64667;SDS011;51077;42.716;23.344;2023-06-26T14:38:14;9.73;;;5.10;;
64667;SDS011;51077;42.716;23.344;2023-06-26T14:40:40;7.63;;;5.23;;
64667;SDS011;51077;42.716;23.344;2023-06-26T14:43:05;7.03;;;4.93;;
64667;SDS011;51077;42.716;23.344;2023-06-26T14:45:31;8.23;;;4.60;;
64667;SDS011;51077;42.716;23.344;2023-06-26T14:47:56;8.30;;;5.20;;
64667;SDS011;51077;42.716;23.344;2023-06-26T14:50:21;7.77;;;4.70;;